createdAt,value
2018-02-06T00:00:21.107Z,-3.93
2018-02-06T00:02:47.405Z,-3.94
2018-02-06T00:05:13.376Z,-3.90
2018-02-06T00:07:39.398Z,-3.89
2018-02-06T00:10:05.492Z,-3.94
2018-02-06T00:12:31.513Z,-3.95
2018-02-06T00:14:57.481Z,-3.94
2018-02-06T00:17:23.525Z,-3.91
2018-02-06T00:19:49.606Z,-3.83
2018-02-06T00:22:15.641Z,-3.86
2018-02-06T00:24:41.664Z,-3.83
2018-02-06T00:27:07.806Z,-3.84
2018-02-06T00:29:33.792Z,-3.87
2018-02-06T00:31:59.816Z,-3.81
2018-02-06T00:34:25.868Z,-3.79
2018-02-06T00:36:51.939Z,-3.84
2018-02-06T00:39:18.097Z,-3.87
2018-02-06T00:41:44.053Z,-3.93
2018-02-06T00:44:10.072Z,-3.99
2018-02-06T00:46:36.196Z,-3.98
2018-02-06T00:49:02.245Z,-3.99
2018-02-06T00:51:28.326Z,-3.99
2018-02-06T00:53:54.356Z,-4.02
2018-02-06T00:56:20.508Z,-4.03
2018-02-06T00:58:46.522Z,-3.99
2018-02-06T01:01:12.913Z,-3.95
2018-02-06T01:03:38.899Z,-3.95
2018-02-06T01:06:04.928Z,-3.96
2018-02-06T01:08:30.940Z,-3.95
2018-02-06T01:10:56.950Z,-3.92
2018-02-06T01:13:22.912Z,-3.95
2018-02-06T01:15:48.933Z,-4.00
2018-02-06T01:18:14.916Z,-3.93
2018-02-06T01:20:40.863Z,-3.92
2018-02-06T01:23:06.953Z,-3.87
2018-02-06T01:25:32.979Z,-3.85
2018-02-06T01:27:59.036Z,-3.86
2018-02-06T01:30:25.049Z,-3.88
2018-02-06T01:32:51.073Z,-3.90
2018-02-06T01:35:17.114Z,-3.95
2018-02-06T01:37:43.149Z,-3.96
2018-02-06T01:40:09.113Z,-3.95
2018-02-06T01:42:35.103Z,-4.02
2018-02-06T01:45:01.218Z,-3.96
2018-02-06T01:47:27.230Z,-4.03
2018-02-06T01:50:04.325Z,-4.00
2018-02-06T01:52:30.372Z,-3.94
2018-02-06T01:54:56.412Z,-3.97
2018-02-06T01:57:22.435Z,-3.97
2018-02-06T01:59:48.393Z,-4.00
2018-02-06T02:02:14.416Z,-4.06
2018-02-06T02:04:40.500Z,-4.11
2018-02-06T02:07:06.489Z,-4.06
2018-02-06T02:09:32.543Z,-4.06
2018-02-06T02:11:58.553Z,-4.02
2018-02-06T02:14:24.593Z,-4.11
2018-02-06T02:16:50.585Z,-4.09
2018-02-06T02:19:16.636Z,-4.09
2018-02-06T02:21:42.649Z,-4.14
2018-02-06T02:24:08.673Z,-4.28
2018-02-06T02:26:34.709Z,-4.36
2018-02-06T02:29:00.739Z,-4.25
2018-02-06T02:31:26.780Z,-4.25
2018-02-06T02:33:52.816Z,-4.29
2018-02-06T02:36:18.843Z,-4.21
2018-02-06T02:38:44.900Z,-4.30
2018-02-06T02:41:10.924Z,-4.28
2018-02-06T04:40:24.033Z,-4.98
2018-02-06T04:42:50.061Z,-5.01
2018-02-06T04:45:16.097Z,-5.03
2018-02-06T04:47:42.148Z,-5.09
2018-02-06T04:50:08.153Z,-5.08
2018-02-06T04:52:34.180Z,-5.06
2018-02-06T04:55:00.280Z,-5.03
2018-02-06T04:57:26.305Z,-5.01
2018-02-06T04:59:52.380Z,-5.07
2018-02-06T05:02:18.432Z,-5.08
2018-02-06T05:04:44.450Z,-5.07
2018-02-06T05:07:10.473Z,-5.03
2018-02-06T05:09:36.485Z,-4.98
2018-02-06T05:12:02.500Z,-5.05
2018-02-06T05:14:28.496Z,-5.06
2018-02-06T05:16:54.515Z,-5.16
2018-02-06T05:19:20.594Z,-5.20
2018-02-06T05:21:46.606Z,-5.10
2018-02-06T05:24:12.644Z,-5.12
2018-02-06T05:26:38.681Z,-5.02
2018-02-06T05:29:04.697Z,-5.08
2018-02-06T05:31:30.739Z,-5.05
2018-02-06T05:33:56.788Z,-4.99
2018-02-06T05:36:22.798Z,-4.98
2018-02-06T05:38:48.944Z,-4.98
2018-02-06T05:41:14.972Z,-4.96
2018-02-06T05:43:40.979Z,-4.97
2018-02-06T05:46:07.070Z,-4.98
2018-02-06T05:48:33.134Z,-4.95
2018-02-06T05:50:59.120Z,-4.90
2018-02-06T05:53:25.124Z,-4.90
2018-02-06T05:55:51.168Z,-4.92
2018-02-06T05:58:17.353Z,-5.04
2018-02-06T06:00:43.441Z,-5.04
2018-02-06T06:03:09.441Z,-4.91
2018-02-06T06:05:35.490Z,-5.01
2018-02-06T06:08:01.464Z,-5.02
2018-02-06T06:10:27.465Z,-5.33
2018-02-06T06:12:53.496Z,-5.35
2018-02-06T06:15:19.517Z,-5.40
2018-02-06T06:17:45.604Z,-5.34
2018-02-06T06:20:11.629Z,-5.31
2018-02-06T06:22:37.794Z,-5.30
2018-02-06T06:25:03.995Z,-5.47
2018-02-06T06:27:30.030Z,-5.40
2018-02-06T06:29:56.129Z,-5.35
2018-02-06T06:32:22.177Z,-5.43
2018-02-06T06:34:48.220Z,-5.44
2018-02-06T06:37:14.376Z,-5.45
2018-02-06T06:39:40.464Z,-5.36
2018-02-06T06:42:06.493Z,-5.37
2018-02-06T06:44:32.525Z,-5.28
2018-02-06T06:46:58.681Z,-5.26
2018-02-06T06:49:24.703Z,-5.16
2018-02-06T06:51:50.744Z,-5.15
2018-02-06T06:54:16.855Z,-5.16
2018-02-06T06:56:42.833Z,-5.17
2018-02-06T06:59:08.819Z,-5.16
2018-02-06T07:01:34.912Z,-5.22
2018-02-06T07:04:00.965Z,-5.22
2018-02-06T07:06:27.065Z,-5.21
2018-02-06T07:08:53.015Z,-5.19
2018-02-06T07:11:19.032Z,-5.29
2018-02-06T07:13:45.030Z,-5.21
2018-02-06T07:16:11.087Z,-5.21
2018-02-06T07:18:37.226Z,-5.12
2018-02-06T07:21:03.285Z,-5.06
2018-02-06T07:23:29.281Z,-5.02
2018-02-06T07:25:55.288Z,-4.96
2018-02-06T07:28:21.322Z,-4.88
2018-02-06T07:30:47.353Z,-4.87
2018-02-06T07:33:13.677Z,-4.82
2018-02-06T07:35:39.686Z,-4.73
2018-02-06T07:38:05.744Z,-4.58
2018-02-06T07:40:31.752Z,-4.61
2018-02-06T07:42:57.733Z,-4.52
2018-02-06T07:45:23.823Z,-4.52
2018-02-06T07:47:49.874Z,-4.43
2018-02-06T07:50:15.835Z,-4.41
2018-02-06T07:52:41.853Z,-4.38
2018-02-06T07:55:07.880Z,-4.39
2018-02-06T07:57:33.885Z,-4.37
2018-02-06T07:59:59.941Z,-4.35
2018-02-06T08:02:25.883Z,-4.26
2018-02-06T08:04:51.900Z,-4.24
2018-02-06T08:07:17.942Z,-4.21
2018-02-06T08:09:43.937Z,-4.19
2018-02-06T08:12:09.920Z,-4.17
2018-02-06T08:14:35.952Z,-4.18
2018-02-06T08:17:01.992Z,-4.10
2018-02-06T08:19:28.040Z,-4.07
2018-02-06T08:21:54.125Z,-4.00
2018-02-06T08:24:20.193Z,-3.88
2018-02-06T08:26:46.217Z,-3.70
2018-02-06T08:29:12.228Z,-3.57
2018-02-06T08:31:38.248Z,-3.53
2018-02-06T08:34:04.275Z,-3.40
2018-02-06T08:36:30.353Z,-3.24
2018-02-06T08:38:56.308Z,-3.05
2018-02-06T08:41:22.337Z,-2.85
2018-02-06T08:43:48.845Z,-2.78
2018-02-06T08:46:14.829Z,-2.79
2018-02-06T08:48:40.897Z,-2.69
2018-02-06T08:51:06.926Z,-2.70
2018-02-06T08:53:32.957Z,-2.80
2018-02-06T08:55:58.960Z,-2.77
2018-02-06T08:58:24.963Z,-2.82
2018-02-06T09:00:51.242Z,-2.67
2018-02-06T09:03:17.292Z,-2.59
2018-02-06T09:05:43.296Z,-2.60
2018-02-06T09:08:09.324Z,-2.71
2018-02-06T09:10:35.329Z,-2.60
2018-02-06T09:13:01.371Z,-2.67
2018-02-06T09:15:27.394Z,-2.59
2018-02-06T09:17:53.441Z,-2.53
2018-02-06T09:20:19.457Z,-2.42
2018-02-06T09:22:45.488Z,-2.28
2018-02-06T09:25:11.574Z,-2.18
2018-02-06T09:27:37.576Z,-2.06
2018-02-06T09:30:03.697Z,-2.01
2018-02-06T09:32:29.720Z,-1.91
2018-02-06T09:34:55.762Z,-1.96
2018-02-06T09:37:21.793Z,-1.83
2018-02-06T09:39:47.793Z,-1.87
2018-02-06T09:42:13.853Z,-1.83
2018-02-06T09:44:39.921Z,-1.63
2018-02-06T09:47:05.944Z,-1.63
2018-02-06T09:49:31.949Z,-1.64
2018-02-06T09:51:58.086Z,-1.51
2018-02-06T09:54:24.440Z,-1.47
2018-02-06T09:56:50.493Z,-1.43
2018-02-06T09:59:16.655Z,-1.41
2018-02-06T10:01:42.622Z,-1.56
2018-02-06T10:04:08.631Z,-1.44
2018-02-06T10:06:34.647Z,-1.45
2018-02-06T10:09:00.721Z,-1.39
2018-02-06T10:11:26.764Z,-1.26
2018-02-06T10:13:52.780Z,-1.38
2018-02-06T10:16:18.761Z,-1.36
2018-02-06T10:18:44.769Z,-1.30
2018-02-06T10:21:10.801Z,-1.06
2018-02-06T10:23:36.868Z,-1.06
2018-02-06T10:26:02.854Z,-0.99
2018-02-06T10:28:29.292Z,-0.78
2018-02-06T10:30:55.308Z,-0.78
2018-02-06T10:33:21.311Z,-0.54
2018-02-06T10:35:54.427Z,-0.45
2018-02-06T10:38:20.443Z,-0.72
2018-02-06T10:40:46.444Z,-0.61
2018-02-06T10:43:12.524Z,-0.42
2018-02-06T10:45:38.934Z,-0.62
2018-02-06T10:48:04.956Z,-0.71
2018-02-06T10:50:30.946Z,-0.61
2018-02-06T10:52:57.022Z,-0.62
2018-02-06T10:55:23.036Z,-0.59
2018-02-06T10:57:49.069Z,-0.53
2018-02-06T11:00:15.078Z,-0.26
2018-02-06T11:02:41.427Z,-0.14
2018-02-06T11:05:07.431Z,-0.16
2018-02-06T11:07:33.439Z,-0.03
2018-02-06T11:09:59.520Z,-0.08
2018-02-06T11:12:25.552Z,0.13
2018-02-06T11:14:51.953Z,0.20
2018-02-06T11:17:17.999Z,0.06
2018-02-06T11:19:44.087Z,0.36
2018-02-06T11:22:10.124Z,0.37
2018-02-06T11:24:36.137Z,0.39
2018-02-06T11:27:02.590Z,0.58
2018-02-06T11:29:28.599Z,0.38
2018-02-06T11:31:54.700Z,0.51
2018-02-06T11:34:20.733Z,0.56
2018-02-06T11:36:46.804Z,0.63
2018-02-06T11:39:13.215Z,0.48
2018-02-06T11:41:39.228Z,0.50
2018-02-06T11:44:05.224Z,0.28
2018-02-06T11:46:31.340Z,0.30
2018-02-06T11:48:57.286Z,0.45
2018-02-06T11:51:23.633Z,0.57
2018-02-06T11:53:49.612Z,0.43
2018-02-06T11:56:15.656Z,0.51
2018-02-06T11:58:41.685Z,0.43
2018-02-06T12:01:07.755Z,0.48
2018-02-06T12:03:34.207Z,0.24
2018-02-06T12:06:00.180Z,0.42
2018-02-06T12:08:26.205Z,0.91
2018-02-06T12:10:52.240Z,0.80
2018-02-06T12:13:18.280Z,0.54
2018-02-06T12:15:44.853Z,0.66
2018-02-06T12:18:10.898Z,0.59
2018-02-06T12:20:36.912Z,0.63
2018-02-06T12:23:02.963Z,0.47
2018-02-06T12:25:28.953Z,0.64
2018-02-06T12:27:55.309Z,0.68
2018-02-06T12:30:21.350Z,1.26
2018-02-06T12:32:47.360Z,1.36
2018-02-06T12:35:14.263Z,1.48
2018-02-06T12:37:40.296Z,1.52
2018-02-06T12:40:06.727Z,1.60
2018-02-06T12:42:32.799Z,1.12
2018-02-06T12:44:58.805Z,0.99
2018-02-06T12:47:24.893Z,1.26
2018-02-06T12:49:50.911Z,1.28
2018-02-06T12:52:16.980Z,1.61
2018-02-06T12:54:42.977Z,1.52
2018-02-06T12:57:09.029Z,1.57
2018-02-06T12:59:35.086Z,1.58
2018-02-06T13:02:01.107Z,1.82
2018-02-06T13:04:27.487Z,1.73
2018-02-06T13:06:53.511Z,1.95
2018-02-06T13:09:19.511Z,2.53
2018-02-06T13:11:45.555Z,2.52
2018-02-06T13:14:11.553Z,2.15
2018-02-06T13:16:37.564Z,2.12
2018-02-06T13:19:03.580Z,2.21
2018-02-06T13:21:29.970Z,2.22
2018-02-06T13:23:56.147Z,3.09
2018-02-06T13:26:22.169Z,2.28
2018-02-06T13:28:48.150Z,3.08
2018-02-06T13:31:14.175Z,2.92
2018-02-06T13:33:40.263Z,2.64
2018-02-06T13:36:06.264Z,2.78
2018-02-06T13:38:32.659Z,2.36
2018-02-06T13:40:58.688Z,2.33
2018-02-06T13:43:24.663Z,2.59
2018-02-06T13:45:50.723Z,2.11
2018-02-06T13:48:16.829Z,2.27
2018-02-06T13:50:43.246Z,2.29
2018-02-06T13:53:09.308Z,1.63
2018-02-06T13:55:35.385Z,1.45
2018-02-06T13:58:01.468Z,1.64
2018-02-06T14:00:27.581Z,1.59
2018-02-06T14:02:53.640Z,1.64
2018-02-06T14:05:19.668Z,1.61
2018-02-06T14:07:46.015Z,1.95
2018-02-06T14:10:12.021Z,2.00
2018-02-06T14:12:38.001Z,1.53
2018-02-06T14:15:04.064Z,1.67
2018-02-06T14:17:30.080Z,1.72
2018-02-06T14:19:56.133Z,1.58
2018-02-06T14:22:22.152Z,1.74
2018-02-06T14:24:48.587Z,1.73
2018-02-06T14:27:14.616Z,2.10
2018-02-06T14:29:40.669Z,2.05
2018-02-06T14:32:06.721Z,1.34
2018-02-06T14:34:32.753Z,1.13
2018-02-06T14:36:58.849Z,0.74
2018-02-06T14:39:24.804Z,0.82
2018-02-06T14:41:51.273Z,0.72
2018-02-06T14:44:17.446Z,0.51
2018-02-06T14:46:43.514Z,0.39
2018-02-06T14:49:09.634Z,0.35
2018-02-06T14:51:35.673Z,0.52
2018-02-06T14:54:01.652Z,0.36
2018-02-06T14:56:27.642Z,0.33
2018-02-06T14:58:53.641Z,0.20
2018-02-06T15:01:19.685Z,0.13
2018-02-06T15:03:46.108Z,0.09
2018-02-06T15:06:12.144Z,0.18
2018-02-06T15:08:38.241Z,0.25
2018-02-06T15:11:04.298Z,0.24
2018-02-06T15:13:30.340Z,0.21
2018-02-06T15:15:56.738Z,0.16
2018-02-06T15:18:22.752Z,-0.03
2018-02-06T15:20:48.756Z,0.03
2018-02-06T15:23:14.822Z,0.03
2018-02-06T15:25:40.882Z,0.02
2018-02-06T15:28:06.852Z,-0.05
2018-02-06T15:30:32.945Z,0.00
2018-02-06T15:32:58.984Z,-0.16
2018-02-06T15:35:25.051Z,-0.17
2018-02-06T15:37:51.096Z,-0.18
2018-02-06T15:40:17.513Z,-0.19
2018-02-06T15:42:43.843Z,-0.16
2018-02-06T15:45:10.484Z,-0.32
2018-02-06T15:47:36.508Z,-0.32
2018-02-06T15:50:02.625Z,-0.41
2018-02-06T15:52:28.629Z,-0.32
2018-02-06T15:54:54.693Z,-0.49
2018-02-06T15:57:20.844Z,-0.57
2018-02-06T15:59:49.566Z,-0.57
2018-02-06T16:02:15.725Z,-0.50
2018-02-06T16:04:42.695Z,-0.56
2018-02-06T16:07:08.980Z,-0.51
2018-02-06T16:09:36.545Z,-0.60
2018-02-06T16:14:35.993Z,-0.65
2018-02-06T16:17:02.178Z,-0.67
2018-02-06T16:19:28.398Z,-0.71
2018-02-06T16:21:55.113Z,-0.67
2018-02-06T16:24:21.266Z,-0.64
2018-02-06T16:26:47.403Z,-0.68
2018-02-06T16:29:13.560Z,-0.68
2018-02-06T16:31:39.686Z,-0.69
2018-02-06T16:34:05.782Z,-0.69
2018-02-06T16:36:31.810Z,-0.63
2018-02-06T16:38:58.438Z,-0.65
2018-02-06T16:41:24.481Z,-0.60
2018-02-06T16:43:50.531Z,-0.57
2018-02-06T16:46:16.841Z,-0.49
2018-02-06T16:48:42.922Z,-0.54
2018-02-06T16:51:09.012Z,-0.54
2018-02-06T16:53:35.324Z,-0.47
2018-02-06T16:56:01.846Z,-0.49
2018-02-06T16:58:27.922Z,-0.54
2018-02-06T17:00:54.022Z,-0.46
2018-02-06T17:03:20.109Z,-0.55
2018-02-06T17:05:46.120Z,-0.61
2018-02-06T17:08:12.549Z,-0.56
2018-02-06T17:10:38.628Z,-0.65
2018-02-06T17:13:04.761Z,-0.63
2018-02-06T17:15:30.834Z,-0.57
2018-02-06T17:17:56.886Z,-0.60
2018-02-06T17:20:22.935Z,-0.62
2018-02-06T17:22:49.077Z,-0.61
2018-02-06T17:25:15.550Z,-0.61
2018-02-06T17:27:41.597Z,-0.67
2018-02-06T17:30:07.619Z,-0.66
2018-02-06T17:32:33.653Z,-0.65
2018-02-06T17:34:59.753Z,-0.69
2018-02-06T17:37:25.798Z,-0.66
2018-02-06T17:39:51.813Z,-0.67
2018-02-06T17:42:17.910Z,-0.66
2018-02-06T17:44:43.938Z,-0.66
2018-02-06T17:47:10.377Z,-0.62
2018-02-06T17:49:36.374Z,-0.68
2018-02-06T17:52:02.374Z,-0.68
2018-02-06T17:54:28.996Z,-0.73
2018-02-06T17:56:55.169Z,-0.63
2018-02-06T17:59:21.174Z,-0.67
2018-02-06T18:01:47.279Z,-0.66
2018-02-06T18:04:13.355Z,-0.65
2018-02-06T18:06:39.805Z,-0.66
2018-02-06T18:09:05.897Z,-0.55
2018-02-06T18:11:31.980Z,-0.60
2018-02-06T18:13:58.029Z,-0.67
2018-02-06T18:16:24.111Z,-0.69
2018-02-06T18:18:50.322Z,-0.67
2018-02-06T18:21:16.462Z,-0.68
2018-02-06T18:23:42.913Z,-0.67
2018-02-06T18:26:09.006Z,-0.67
2018-02-06T18:28:35.005Z,-0.79
2018-02-06T18:31:01.223Z,-0.78
2018-02-06T18:33:27.279Z,-0.92
2018-02-06T18:35:53.656Z,-0.80
2018-02-06T18:38:19.835Z,-0.92
2018-02-06T18:40:45.897Z,-0.89
2018-02-06T18:43:11.993Z,-1.00
2018-02-06T18:45:38.092Z,-1.01
2018-02-06T18:48:04.114Z,-1.06
2018-02-06T18:50:30.170Z,-1.00
2018-02-06T18:52:56.313Z,-1.07
2018-02-06T18:55:22.376Z,-1.10
2018-02-06T18:57:48.774Z,-1.16
2018-02-06T19:00:14.820Z,-1.19
2018-02-06T19:02:41.022Z,-1.25
2018-02-06T19:05:07.097Z,-1.27
2018-02-06T19:07:33.236Z,-1.29
2018-02-06T19:09:59.290Z,-1.36
2018-02-06T19:12:25.733Z,-1.31
2018-02-06T19:14:52.112Z,-1.31
2018-02-06T19:17:18.169Z,-1.39
2018-02-06T19:19:44.260Z,-1.39
2018-02-06T19:22:10.384Z,-1.42
2018-02-06T19:24:36.669Z,-1.41
2018-02-06T19:27:02.814Z,-1.43
2018-02-06T19:29:29.317Z,-1.44
2018-02-06T19:31:55.405Z,-1.53
2018-02-06T19:34:21.429Z,-1.55
2018-02-06T19:36:49.312Z,-1.62
2018-02-06T19:39:15.373Z,-1.66
2018-02-06T19:41:42.425Z,-1.55
2018-02-06T19:44:08.562Z,-1.62
2018-02-06T19:46:34.674Z,-1.70
2018-02-06T19:49:00.743Z,-1.66
2018-02-06T19:51:27.879Z,-1.68
2018-02-06T19:53:53.970Z,-1.78
2018-02-06T19:56:19.993Z,-1.79
2018-02-06T19:58:47.433Z,-1.82
2018-02-06T20:01:14.527Z,-1.78
2018-02-06T20:03:41.098Z,-1.75
2018-02-06T20:06:07.136Z,-1.71
2018-02-06T20:08:33.198Z,-1.70
2018-02-06T20:10:59.321Z,-1.69
2018-02-06T20:13:26.444Z,-1.71
2018-02-06T20:15:52.884Z,-1.75
2018-02-06T20:18:18.925Z,-1.81
2018-02-06T20:20:45.098Z,-1.81
2018-02-06T20:23:12.165Z,-1.85
2018-02-06T20:25:38.293Z,-1.86
2018-02-06T20:28:04.399Z,-1.91
2018-02-06T20:30:30.461Z,-2.03
2018-02-06T20:32:56.530Z,-2.10
2018-02-06T20:35:22.618Z,-2.09
2018-02-06T20:37:48.702Z,-2.07
2018-02-06T20:40:14.824Z,-2.09
2018-02-06T20:42:40.856Z,-2.18
2018-02-06T20:45:07.341Z,-2.27
2018-02-06T20:47:33.390Z,-2.27
2018-02-06T20:49:59.346Z,-2.30
2018-02-06T20:52:26.433Z,-2.24
2018-02-06T20:54:52.475Z,-2.23
2018-02-06T20:57:18.548Z,-2.26
2018-02-06T20:59:44.667Z,-2.34
2018-02-06T21:02:10.707Z,-2.51
2018-02-06T21:04:36.721Z,-2.56
2018-02-06T21:07:02.764Z,-2.55
2018-02-06T21:09:29.139Z,-2.47
2018-02-06T21:11:55.184Z,-2.44
2018-02-06T21:14:21.643Z,-2.55
2018-02-06T21:16:47.657Z,-2.48
2018-02-06T21:19:13.695Z,-2.46
2018-02-06T21:21:39.769Z,-2.50
2018-02-06T21:24:05.853Z,-2.53
2018-02-06T21:26:31.890Z,-2.57
2018-02-06T21:28:57.975Z,-2.60
2018-02-06T21:31:24.407Z,-2.71
2018-02-06T21:33:50.333Z,-2.78
2018-02-06T21:36:16.396Z,-2.95
2018-02-06T21:38:42.492Z,-3.02
2018-02-06T21:41:08.524Z,-2.95
2018-02-06T21:43:34.509Z,-3.06
2018-02-06T21:46:00.566Z,-3.02
2018-02-06T21:48:26.960Z,-3.15
2018-02-06T21:50:53.016Z,-3.21
2018-02-06T21:53:19.050Z,-3.21
2018-02-06T21:55:45.106Z,-3.11
2018-02-06T21:58:11.148Z,-3.01
2018-02-06T22:00:37.271Z,-2.97
2018-02-06T22:03:03.264Z,-2.96
2018-02-06T22:05:29.606Z,-3.01
2018-02-06T22:07:55.680Z,-3.01
2018-02-06T22:10:21.709Z,-2.98
2018-02-06T22:12:47.847Z,-2.97
2018-02-06T22:15:13.877Z,-2.98
2018-02-06T22:17:39.954Z,-3.06
2018-02-06T22:20:05.992Z,-3.09
2018-02-06T22:22:32.443Z,-3.12
2018-02-06T22:24:58.508Z,-3.24
2018-02-06T22:27:24.601Z,-3.27
2018-02-06T22:29:50.622Z,-3.35
2018-02-06T22:32:16.622Z,-3.43
2018-02-06T22:34:42.641Z,-3.50
2018-02-06T22:37:08.686Z,-3.48
2018-02-06T22:39:35.138Z,-3.58
2018-02-06T22:42:01.154Z,-3.55
2018-02-06T22:44:27.196Z,-3.52
2018-02-06T22:46:53.362Z,-3.49
2018-02-06T22:49:19.411Z,-3.49
2018-02-06T22:51:45.434Z,-3.43
2018-02-06T22:54:11.445Z,-3.49
2018-02-06T22:56:37.485Z,-3.51
2018-02-06T22:59:03.499Z,-3.49
2018-02-06T23:01:29.522Z,-3.50
2018-02-06T23:03:55.562Z,-3.55
2018-02-06T23:06:21.645Z,-3.57
2018-02-06T23:08:48.044Z,-3.59
2018-02-06T23:11:14.055Z,-3.58
2018-02-06T23:13:40.055Z,-3.57
2018-02-06T23:16:06.083Z,-3.60
2018-02-06T23:18:32.093Z,-3.60
2018-02-06T23:20:58.173Z,-3.63
2018-02-06T23:23:24.197Z,-3.58
2018-02-06T23:25:50.222Z,-3.61
2018-02-06T23:28:16.290Z,-3.71
2018-02-06T23:30:42.601Z,-3.68
2018-02-06T23:33:08.646Z,-3.66
2018-02-06T23:35:34.677Z,-3.65
2018-02-06T23:38:00.729Z,-3.59
2018-02-06T23:40:26.777Z,-3.58
2018-02-06T23:42:52.845Z,-3.54
2018-02-06T23:45:18.873Z,-3.54
2018-02-06T23:47:44.899Z,-3.63
2018-02-06T23:50:10.923Z,-3.62
2018-02-06T23:52:36.952Z,-3.48
2018-02-06T23:55:03.336Z,-3.48
2018-02-06T23:57:29.769Z,-3.46
2018-02-06T23:59:55.792Z,-3.46
